createdAt,value
2022-11-24T00:01:29.534Z,34.62
2022-11-24T00:04:00.051Z,34.67
2022-11-24T00:06:30.041Z,34.84
2022-11-24T00:08:58.873Z,34.68
2022-11-24T00:11:33.290Z,34.66
2022-11-24T00:14:02.276Z,35.00
2022-11-24T00:16:33.733Z,35.13
2022-11-24T00:19:05.059Z,35.00
2022-11-24T00:21:33.365Z,34.62
2022-11-24T00:24:02.256Z,34.70
2022-11-24T00:26:32.698Z,34.90
2022-11-24T00:29:03.522Z,35.03
2022-11-24T00:31:36.942Z,35.30
2022-11-24T00:34:12.242Z,35.18
2022-11-24T00:36:44.533Z,35.13
2022-11-24T00:39:14.974Z,35.23
2022-11-24T00:41:43.346Z,35.41
2022-11-24T00:44:11.544Z,35.39
2022-11-24T00:46:40.567Z,35.33
2022-11-24T00:49:09.516Z,35.20
2022-11-24T00:51:37.696Z,35.17
2022-11-24T00:54:05.936Z,35.04
2022-11-24T00:56:34.051Z,34.86
2022-11-24T00:59:02.236Z,35.07
2022-11-24T01:01:31.273Z,35.15
2022-11-24T01:04:00.650Z,35.06
2022-11-24T01:06:29.819Z,35.33
2022-11-24T01:08:58.527Z,35.32
2022-11-24T01:11:29.708Z,35.24
2022-11-24T01:13:59.697Z,35.36
2022-11-24T01:16:35.347Z,35.19
2022-11-24T01:19:03.519Z,35.33
2022-11-24T01:21:31.719Z,35.57
2022-11-24T01:24:00.286Z,35.74
2022-11-24T01:26:28.258Z,36.06
2022-11-24T01:28:57.676Z,35.82
2022-11-24T01:31:26.908Z,35.85
2022-11-24T01:33:55.564Z,35.61
2022-11-24T01:36:24.148Z,35.60
2022-11-24T01:38:52.329Z,35.43
2022-11-24T01:41:25.712Z,35.52
2022-11-24T01:43:55.347Z,35.36
2022-11-24T01:46:33.895Z,35.52
2022-11-24T01:49:21.977Z,37.20
2022-11-24T01:51:53.227Z,38.02
2022-11-24T01:54:26.011Z,38.25
2022-11-24T01:57:00.737Z,38.61
2022-11-24T01:59:29.272Z,37.96
2022-11-24T02:01:57.851Z,38.42
2022-11-24T02:04:30.909Z,37.98
2022-11-24T02:07:02.077Z,37.66
2022-11-24T02:09:39.445Z,37.71
2022-11-24T02:12:09.252Z,37.76
2022-11-24T02:14:39.169Z,37.84
2022-11-24T02:17:07.754Z,38.42
2022-11-24T02:19:46.883Z,38.99
2022-11-24T02:22:40.237Z,38.97
2022-11-24T02:25:36.250Z,39.06
2022-11-24T02:28:08.763Z,38.73
2022-11-24T02:30:37.517Z,38.65
2022-11-24T02:33:05.899Z,38.84
2022-11-24T02:35:34.696Z,38.85
2022-11-24T02:38:02.979Z,38.69
2022-11-24T02:40:31.664Z,38.73
2022-11-24T02:43:13.725Z,38.80
2022-11-24T02:45:41.940Z,38.90
2022-11-24T02:48:10.117Z,39.28
2022-11-24T02:50:38.300Z,39.09
2022-11-24T02:53:06.473Z,39.00
2022-11-24T02:55:34.649Z,39.15
2022-11-24T02:58:03.341Z,39.07
2022-11-24T03:00:31.621Z,39.09
2022-11-24T03:02:59.719Z,39.24
2022-11-24T03:05:28.386Z,39.31
2022-11-24T03:07:56.617Z,39.16
2022-11-24T03:10:25.050Z,39.10
2022-11-24T03:12:54.376Z,39.39
2022-11-24T03:15:23.657Z,39.18
2022-11-24T03:17:54.997Z,38.82
2022-11-24T03:20:23.496Z,38.63
2022-11-24T03:22:51.983Z,38.71
2022-11-24T03:25:20.569Z,38.75
2022-11-24T03:27:49.667Z,38.73
2022-11-24T03:30:17.947Z,38.67
2022-11-24T03:32:46.645Z,38.92
2022-11-24T03:35:14.816Z,38.89
2022-11-24T03:37:42.892Z,38.82
2022-11-24T03:40:11.582Z,38.82
2022-11-24T03:42:40.688Z,38.59
2022-11-24T03:45:38.004Z,38.47
2022-11-24T03:47:57.301Z,38.28
2022-11-24T03:50:25.588Z,38.20
2022-11-24T03:52:54.022Z,38.59
2022-11-24T03:55:22.251Z,38.39
2022-11-24T03:57:50.526Z,38.33
2022-11-24T04:00:18.604Z,38.47
2022-11-24T04:02:46.797Z,38.38
2022-11-24T04:05:15.470Z,38.56
2022-11-24T04:07:43.617Z,38.45
2022-11-24T04:10:12.340Z,38.42
2022-11-24T04:12:40.517Z,38.25
2022-11-24T04:15:09.004Z,38.40
2022-11-24T04:17:37.181Z,38.26
2022-11-24T04:20:06.282Z,38.25
2022-11-24T04:22:34.253Z,38.22
2022-11-24T04:25:03.659Z,38.26
2022-11-24T04:27:36.348Z,38.33
2022-11-24T04:30:06.386Z,38.36
2022-11-24T04:32:35.056Z,38.41
2022-11-24T04:35:04.285Z,38.42
2022-11-24T04:37:33.045Z,38.46
2022-11-24T04:40:01.129Z,38.49
2022-11-24T04:42:29.301Z,38.44
2022-11-24T04:44:57.477Z,38.37
2022-11-24T04:47:27.221Z,38.48
2022-11-24T04:49:55.471Z,38.56
2022-11-24T04:52:24.908Z,38.49
2022-11-24T04:54:53.182Z,38.60
2022-11-24T04:57:27.413Z,38.45
2022-11-24T04:59:55.554Z,38.67
2022-11-24T05:02:23.938Z,38.72
2022-11-24T05:04:52.713Z,38.75
2022-11-24T05:07:20.864Z,38.54
2022-11-24T05:09:59.396Z,38.62
2022-11-24T05:12:28.520Z,38.45
2022-11-24T05:15:00.067Z,38.73
2022-11-24T05:17:39.203Z,38.51
2022-11-24T05:20:08.199Z,38.69
2022-11-24T05:22:36.276Z,38.66
2022-11-24T05:25:05.069Z,39.05
2022-11-24T05:27:33.352Z,38.94
2022-11-24T05:30:01.526Z,38.96
2022-11-24T05:32:29.997Z,38.98
2022-11-24T05:34:58.399Z,39.04
2022-11-24T05:37:29.238Z,39.02
2022-11-24T05:39:57.724Z,38.84
2022-11-24T05:42:25.932Z,38.93
2022-11-24T05:44:54.200Z,39.36
2022-11-24T05:47:23.175Z,39.17
2022-11-24T05:49:51.362Z,39.33
2022-11-24T05:52:19.739Z,39.41
2022-11-24T05:54:48.325Z,39.39
2022-11-24T05:57:19.507Z,39.35
2022-11-24T05:59:48.060Z,39.47
2022-11-24T06:02:16.330Z,39.56
2022-11-24T06:04:44.829Z,39.50
2022-11-24T06:07:13.868Z,39.71
2022-11-24T06:09:42.419Z,39.81
2022-11-24T06:12:12.024Z,39.76
2022-11-24T06:14:40.742Z,39.90
2022-11-24T06:17:10.687Z,39.97
2022-11-24T06:19:42.035Z,40.18
2022-11-24T06:22:10.879Z,40.37
2022-11-24T06:24:39.059Z,40.36
2022-11-24T06:27:07.233Z,40.22
2022-11-24T06:29:35.309Z,40.13
2022-11-24T06:32:04.277Z,40.13
2022-11-24T06:34:32.767Z,40.22
2022-11-24T06:37:01.790Z,40.09
2022-11-24T06:39:30.175Z,40.24
2022-11-24T06:41:59.071Z,40.17
2022-11-24T06:44:27.569Z,40.11
2022-11-24T06:46:56.144Z,40.17
2022-11-24T06:49:24.534Z,40.22
2022-11-24T06:51:55.097Z,40.21
2022-11-24T06:54:23.332Z,40.40
2022-11-24T06:56:56.865Z,40.47
2022-11-24T06:59:25.614Z,40.53
2022-11-24T07:01:54.211Z,40.53
2022-11-24T07:04:22.800Z,40.50
2022-11-24T07:06:50.976Z,40.59
2022-11-24T07:09:19.360Z,40.59
2022-11-24T07:11:47.947Z,40.59
2022-11-24T07:14:16.033Z,40.63
2022-11-24T07:16:44.251Z,40.83
2022-11-24T07:19:12.585Z,40.70
2022-11-24T07:21:40.766Z,40.81
2022-11-24T07:24:10.377Z,40.62
2022-11-24T07:26:38.758Z,40.37
2022-11-24T07:29:06.935Z,39.82
2022-11-24T07:31:35.295Z,38.76
2022-11-24T07:34:03.810Z,37.81
2022-11-24T07:36:31.886Z,36.02
2022-11-24T07:39:00.279Z,34.40
2022-11-24T07:41:28.529Z,33.05
2022-11-24T07:43:56.723Z,32.21
2022-11-24T07:46:25.477Z,30.98
2022-11-24T07:48:53.992Z,29.71
2022-11-24T07:51:22.078Z,27.99
2022-11-24T07:53:50.258Z,26.36
2022-11-24T07:56:18.534Z,25.25
2022-11-24T07:58:52.517Z,23.75
2022-11-24T08:01:21.320Z,22.90
2022-11-24T08:03:49.978Z,22.48
2022-11-24T08:06:29.041Z,23.22
2022-11-24T08:09:00.748Z,22.44
2022-11-24T08:11:29.111Z,22.25
2022-11-24T08:13:58.620Z,20.75
2022-11-24T08:16:27.249Z,20.06
2022-11-24T08:18:56.400Z,19.10
2022-11-24T08:21:25.400Z,18.40
2022-11-24T08:23:57.667Z,18.11
2022-11-24T08:26:26.557Z,17.22
2022-11-24T08:28:57.705Z,17.49
2022-11-24T08:31:27.921Z,16.36
2022-11-24T08:33:56.254Z,16.21
2022-11-24T08:36:24.497Z,15.64
2022-11-24T08:38:57.785Z,15.41
2022-11-24T08:41:27.088Z,15.01
2022-11-24T08:43:56.082Z,14.77
2022-11-24T08:46:25.161Z,14.51
2022-11-24T08:48:55.520Z,14.31
2022-11-24T08:51:26.422Z,14.50
2022-11-24T08:54:00.018Z,13.88
2022-11-24T08:56:30.585Z,13.75
2022-11-24T08:58:59.923Z,13.29
2022-11-24T09:01:28.895Z,13.05
2022-11-24T09:03:57.873Z,12.79
2022-11-24T09:06:28.826Z,12.95
2022-11-24T09:08:57.999Z,13.43
2022-11-24T09:11:26.934Z,14.25
2022-11-24T09:13:56.061Z,14.79
2022-11-24T09:16:27.926Z,15.30
2022-11-24T09:19:01.484Z,15.95
2022-11-24T09:21:32.020Z,16.36
2022-11-24T09:24:00.503Z,17.17
2022-11-24T09:26:31.161Z,18.21
2022-11-24T09:29:00.443Z,18.52
2022-11-24T09:31:32.333Z,18.68
2022-11-24T09:34:02.034Z,19.05
2022-11-24T09:36:30.300Z,19.97
2022-11-24T09:38:59.302Z,20.70
2022-11-24T09:41:54.594Z,21.04
2022-11-24T09:44:57.565Z,21.83
2022-11-24T09:47:44.470Z,21.35
2022-11-24T09:50:37.434Z,21.26
2022-11-24T09:53:24.129Z,20.84
2022-11-24T09:55:56.497Z,20.23
2022-11-24T09:58:40.461Z,20.39
2022-11-24T10:01:14.452Z,19.87
2022-11-24T10:03:45.242Z,19.56
2022-11-24T10:06:22.725Z,18.88
2022-11-24T10:09:06.207Z,18.72
2022-11-24T10:11:44.811Z,18.41
2022-11-24T10:14:42.456Z,18.45
2022-11-24T10:17:16.783Z,18.30
2022-11-24T10:19:51.605Z,17.80
2022-11-24T10:22:38.820Z,17.76
2022-11-24T10:25:19.074Z,17.18
2022-11-24T10:28:03.009Z,17.11
2022-11-24T10:30:31.715Z,16.85
2022-11-24T10:33:20.769Z,16.64
2022-11-24T10:36:06.652Z,16.33
2022-11-24T10:39:03.777Z,16.29
2022-11-24T10:41:57.026Z,16.29
2022-11-24T10:44:25.859Z,16.83
2022-11-24T10:46:54.259Z,16.75
2022-11-24T10:49:27.573Z,16.32
2022-11-24T10:52:16.707Z,15.83
2022-11-24T10:54:59.845Z,15.49
2022-11-24T10:57:36.723Z,15.40
2022-11-24T11:00:24.788Z,15.64
2022-11-24T11:03:12.649Z,15.55
2022-11-24T11:05:44.978Z,15.39
2022-11-24T11:08:32.295Z,15.59
2022-11-24T11:11:12.754Z,15.98
2022-11-24T11:13:48.607Z,15.82
2022-11-24T11:16:26.998Z,15.72
2022-11-24T11:18:55.298Z,15.59
2022-11-24T11:21:34.221Z,15.21
2022-11-24T11:24:22.150Z,14.95
2022-11-24T11:27:00.462Z,15.44
2022-11-24T11:35:14.138Z,15.55
2022-11-24T11:37:44.443Z,15.41
2022-11-24T11:40:17.841Z,15.79
2022-11-24T11:43:08.058Z,16.17
2022-11-24T11:45:41.763Z,16.69
2022-11-24T11:48:40.657Z,17.85
2022-11-24T11:51:30.283Z,18.95
2022-11-24T11:54:08.126Z,20.39
2022-11-24T11:56:43.419Z,21.18
2022-11-24T11:59:24.072Z,22.21
2022-11-24T12:02:22.013Z,23.15
2022-11-24T12:05:25.003Z,24.18
2022-11-24T12:08:20.695Z,25.34
2022-11-24T12:10:55.330Z,25.55
2022-11-24T12:13:43.291Z,26.51
2022-11-24T12:16:39.685Z,26.50
2022-11-24T12:19:14.109Z,26.22
2022-11-24T12:21:55.303Z,26.60
2022-11-24T12:24:40.885Z,26.31
2022-11-24T12:27:24.277Z,27.01
2022-11-24T12:29:58.408Z,27.38
2022-11-24T12:32:45.502Z,27.30
2022-11-24T12:35:26.572Z,27.43
2022-11-24T12:38:40.425Z,27.23
2022-11-24T12:44:36.015Z,28.37
2022-11-24T12:47:17.584Z,28.83
2022-11-24T12:50:02.381Z,28.92
2022-11-24T12:52:38.297Z,28.93
2022-11-24T12:55:16.475Z,29.02
2022-11-24T12:58:09.316Z,29.50
2022-11-24T13:00:55.430Z,29.32
2022-11-24T13:03:58.093Z,29.38
2022-11-24T13:06:49.423Z,29.49
2022-11-24T13:09:18.280Z,29.96
2022-11-24T13:11:50.499Z,29.80
2022-11-24T13:14:21.305Z,29.60
2022-11-24T13:17:29.044Z,29.63
2022-11-24T13:19:48.770Z,30.20
2022-11-24T13:22:24.622Z,29.92
2022-11-24T13:25:16.543Z,29.55
2022-11-24T13:27:48.246Z,29.62
2022-11-24T13:30:53.719Z,29.42
2022-11-24T13:33:33.050Z,29.80
2022-11-24T13:36:04.413Z,30.23
2022-11-24T13:38:52.205Z,30.37
2022-11-24T13:41:32.389Z,30.54
2022-11-24T13:44:16.245Z,30.05
2022-11-24T13:47:31.684Z,29.96
2022-11-24T13:50:01.433Z,30.15
2022-11-24T13:52:39.091Z,29.96
2022-11-24T13:55:13.931Z,29.72
2022-11-24T13:58:14.130Z,29.94
2022-11-24T14:01:02.979Z,29.87
2022-11-24T14:04:32.915Z,30.70
2022-11-24T14:07:09.180Z,30.97
2022-11-24T14:09:42.628Z,30.79
2022-11-24T14:12:18.174Z,30.79
2022-11-24T14:14:48.782Z,30.49
2022-11-24T14:17:27.975Z,30.20
2022-11-24T14:19:58.291Z,30.81
2022-11-24T14:22:39.172Z,30.64
2022-11-24T14:25:23.169Z,30.44
2022-11-24T14:27:51.849Z,30.55
2022-11-24T14:30:23.115Z,30.57
2022-11-24T14:32:59.951Z,30.73
2022-11-24T14:35:35.250Z,31.18
2022-11-24T14:38:05.912Z,31.46
2022-11-24T14:40:46.143Z,31.86
2022-11-24T14:43:23.397Z,31.88
2022-11-24T14:45:58.396Z,32.17
2022-11-24T14:48:29.854Z,32.82
2022-11-24T14:51:23.241Z,33.48
2022-11-24T14:53:54.559Z,33.54
2022-11-24T14:56:35.007Z,33.87
2022-11-24T14:59:05.071Z,34.42
2022-11-24T15:01:34.923Z,34.59
2022-11-24T15:04:26.936Z,34.75
2022-11-24T15:07:12.371Z,35.40
2022-11-24T15:09:52.548Z,35.90
2022-11-24T15:12:39.209Z,35.76
2022-11-24T15:15:23.268Z,36.26
2022-11-24T15:17:57.433Z,36.66
2022-11-24T15:20:40.300Z,36.61
2022-11-24T15:23:20.782Z,37.59
2022-11-24T15:25:51.116Z,38.01
2022-11-24T15:28:19.368Z,38.42
2022-11-24T15:30:47.448Z,38.78
2022-11-24T15:33:19.920Z,39.05
2022-11-24T15:35:48.300Z,39.35
2022-11-24T15:38:16.785Z,39.64
2022-11-24T15:40:47.744Z,39.84
2022-11-24T15:43:22.162Z,40.71
2022-11-24T15:45:50.332Z,40.98
2022-11-24T15:48:18.680Z,41.12
2022-11-24T15:50:48.428Z,41.24
2022-11-24T15:53:21.826Z,40.51
2022-11-24T15:55:50.619Z,40.33
2022-11-24T15:58:18.907Z,40.08
2022-11-24T16:00:47.348Z,40.43
2022-11-24T16:03:45.883Z,40.68
2022-11-24T16:06:03.896Z,40.71
2022-11-24T16:08:32.276Z,40.19
2022-11-24T16:11:00.457Z,40.91
2022-11-24T16:13:28.622Z,41.35
2022-11-24T16:15:57.026Z,41.81
2022-11-24T16:18:25.297Z,41.79
2022-11-24T16:20:53.695Z,41.34
2022-11-24T16:23:21.968Z,41.42
2022-11-24T16:25:50.141Z,41.74
2022-11-24T16:28:18.424Z,42.06
2022-11-24T16:30:50.632Z,42.67
2022-11-24T16:33:18.870Z,43.37
2022-11-24T16:35:48.177Z,43.82
2022-11-24T16:38:17.711Z,43.17
2022-11-24T16:40:51.800Z,44.81
2022-11-24T16:43:20.324Z,44.84
2022-11-24T16:46:03.643Z,44.92
2022-11-24T16:48:36.290Z,44.65
2022-11-24T16:51:09.369Z,45.98
2022-11-24T16:53:38.476Z,45.77
2022-11-24T16:56:07.474Z,47.21
2022-11-24T16:58:40.865Z,46.34
2022-11-24T17:01:12.690Z,46.56
2022-11-24T17:03:41.639Z,46.89
2022-11-24T17:06:13.808Z,46.85
2022-11-24T17:08:43.605Z,46.69
2022-11-24T17:11:13.651Z,47.38
2022-11-24T17:13:43.221Z,47.01
2022-11-24T17:16:16.134Z,47.26
2022-11-24T17:18:45.023Z,46.94
2022-11-24T17:21:15.874Z,46.95
2022-11-24T17:23:44.358Z,47.77
2022-11-24T17:26:14.744Z,47.71
2022-11-24T17:28:43.877Z,47.50
2022-11-24T17:31:23.938Z,47.69
2022-11-24T17:33:55.036Z,47.69
2022-11-24T17:36:23.664Z,47.58
2022-11-24T17:38:52.149Z,47.37
2022-11-24T17:41:21.549Z,47.98
2022-11-24T17:43:55.113Z,47.50
2022-11-24T17:46:24.312Z,47.58
2022-11-24T17:48:52.639Z,47.10
2022-11-24T17:51:23.580Z,47.39
2022-11-24T17:53:53.708Z,47.31
2022-11-24T17:56:24.476Z,47.73
2022-11-24T17:59:00.498Z,47.65
2022-11-24T18:01:29.358Z,46.99
2022-11-24T18:03:58.794Z,46.94
2022-11-24T18:06:27.500Z,46.59
2022-11-24T18:08:57.508Z,46.38
2022-11-24T18:11:31.756Z,46.54
2022-11-24T18:14:03.375Z,46.71
2022-11-24T18:16:34.449Z,46.58
2022-11-24T18:19:09.329Z,46.36
2022-11-24T18:21:41.931Z,46.34
2022-11-24T18:24:11.841Z,46.36
2022-11-24T18:26:41.513Z,46.58
2022-11-24T18:29:11.175Z,46.62
2022-11-24T18:31:39.842Z,46.25
2022-11-24T18:34:08.354Z,45.92
2022-11-24T18:36:37.282Z,46.04
2022-11-24T18:39:07.684Z,46.17
2022-11-24T18:41:36.774Z,46.38
2022-11-24T18:44:04.826Z,46.08
2022-11-24T18:46:33.234Z,46.35
2022-11-24T18:49:01.678Z,46.46
2022-11-24T18:51:30.308Z,46.38
2022-11-24T18:53:58.590Z,46.38
2022-11-24T18:56:27.209Z,46.59
2022-11-24T18:58:58.744Z,46.74
2022-11-24T19:01:29.075Z,46.34
2022-11-24T19:03:59.262Z,45.69
2022-11-24T19:06:33.597Z,46.26
2022-11-24T19:09:08.336Z,46.17
2022-11-24T19:11:39.062Z,45.76
2022-11-24T19:14:09.502Z,45.57
2022-11-24T19:16:37.760Z,45.05
2022-11-24T19:19:05.957Z,45.18
2022-11-24T19:21:36.387Z,45.05
2022-11-24T19:24:06.076Z,45.37
2022-11-24T19:26:34.692Z,44.93
2022-11-24T19:29:04.813Z,44.28
2022-11-24T19:31:34.111Z,44.35
2022-11-24T19:34:02.998Z,44.11
2022-11-24T19:36:32.342Z,43.83
2022-11-24T19:39:00.460Z,43.73
2022-11-24T19:41:31.024Z,43.41
2022-11-24T19:44:00.122Z,43.45
2022-11-24T19:46:29.840Z,43.56
2022-11-24T19:49:02.409Z,43.64
2022-11-24T19:51:33.169Z,43.25
2022-11-24T19:54:03.379Z,42.84
2022-11-24T19:56:34.158Z,42.86
2022-11-24T19:59:04.540Z,43.00
2022-11-24T20:01:35.594Z,42.68
2022-11-24T20:04:08.899Z,42.70
2022-11-24T20:06:39.473Z,42.61
2022-11-24T20:09:10.465Z,42.35
2022-11-24T20:11:39.552Z,41.79
2022-11-24T20:14:11.252Z,42.22
2022-11-24T20:16:40.090Z,42.55
2022-11-24T20:19:14.890Z,42.48
2022-11-24T20:21:43.938Z,42.22
2022-11-24T20:24:18.318Z,42.16
2022-11-24T20:26:49.504Z,42.10
2022-11-24T20:29:18.875Z,42.00
2022-11-24T20:31:49.871Z,42.18
2022-11-24T20:34:18.026Z,42.27
2022-11-24T20:36:47.749Z,42.16
2022-11-24T20:39:20.424Z,41.83
2022-11-24T20:41:48.911Z,41.95
2022-11-24T20:44:18.537Z,42.01
2022-11-24T20:46:48.441Z,41.78
2022-11-24T20:49:19.512Z,41.62
2022-11-24T20:51:47.741Z,41.58
2022-11-24T20:54:18.214Z,41.36
2022-11-24T20:56:47.907Z,41.23
2022-11-24T20:59:21.939Z,41.36
2022-11-24T21:01:51.462Z,41.43
2022-11-24T21:04:22.785Z,41.54
2022-11-24T21:06:51.061Z,41.40
2022-11-24T21:09:19.434Z,41.42
2022-11-24T21:11:49.147Z,41.49
2022-11-24T21:14:17.299Z,41.44
2022-11-24T21:16:45.849Z,41.49
2022-11-24T21:19:15.679Z,41.13
2022-11-24T21:21:44.593Z,41.01
2022-11-24T21:24:18.232Z,41.04
2022-11-24T21:26:47.160Z,42.06
2022-11-24T21:29:16.952Z,42.22
2022-11-24T21:31:45.794Z,41.85
2022-11-24T21:34:16.856Z,42.01
2022-11-24T21:36:45.796Z,41.89
2022-11-24T21:39:15.230Z,42.18
2022-11-24T21:41:43.673Z,41.96
2022-11-24T21:44:13.562Z,42.14
2022-11-24T21:46:49.351Z,42.46
2022-11-24T21:49:19.355Z,42.13
2022-11-24T21:51:48.168Z,42.19
2022-11-24T21:54:16.321Z,42.08
2022-11-24T21:56:44.497Z,42.00
2022-11-24T21:59:12.678Z,42.28
2022-11-24T22:01:40.933Z,42.27
2022-11-24T22:04:09.856Z,42.54
2022-11-24T22:06:38.237Z,42.01
2022-11-24T22:09:06.618Z,41.86
2022-11-24T22:11:34.899Z,42.04
2022-11-24T22:14:02.975Z,42.39
2022-11-24T22:16:31.060Z,42.26
2022-11-24T22:19:00.386Z,42.12
2022-11-24T22:21:28.741Z,42.05
2022-11-24T22:23:57.130Z,42.37
2022-11-24T22:26:27.176Z,42.38
2022-11-24T22:28:57.473Z,42.44
2022-11-24T22:31:33.565Z,42.52
2022-11-24T22:34:02.421Z,42.35
2022-11-24T22:36:30.915Z,42.40
2022-11-24T22:39:02.276Z,42.07
2022-11-24T22:41:33.521Z,42.45
2022-11-24T22:44:02.808Z,42.09
2022-11-24T22:46:31.981Z,42.58
2022-11-24T22:49:01.321Z,42.48
2022-11-24T22:51:32.260Z,42.17
2022-11-24T22:54:03.025Z,42.03
2022-11-24T22:56:32.364Z,42.38
2022-11-24T22:59:02.143Z,42.34
2022-11-24T23:01:32.184Z,42.10
2022-11-24T23:04:00.969Z,42.03
2022-11-24T23:06:31.593Z,42.22
2022-11-24T23:09:01.407Z,42.53
2022-11-24T23:11:38.633Z,42.31
2022-11-24T23:14:12.851Z,42.72
2022-11-24T23:16:41.514Z,42.48
2022-11-24T23:19:10.155Z,42.48
2022-11-24T23:21:39.305Z,42.53
2022-11-24T23:24:08.665Z,42.08
2022-11-24T23:26:40.834Z,42.20
2022-11-24T23:29:11.267Z,42.37
2022-11-24T23:31:39.500Z,42.31
2022-11-24T23:34:08.128Z,42.25
2022-11-24T23:36:36.524Z,42.34
2022-11-24T23:39:11.579Z,42.32
2022-11-24T23:41:39.829Z,42.05
2022-11-24T23:44:08.210Z,42.13
2022-11-24T23:46:37.415Z,41.87
2022-11-24T23:49:05.490Z,41.95
2022-11-24T23:51:33.977Z,42.17
2022-11-24T23:54:02.800Z,42.16
2022-11-24T23:56:32.783Z,42.21
2022-11-24T23:59:04.035Z,41.85
